createdAt,value
2022-12-12T00:00:23.170Z,48.55
2022-12-12T00:02:50.335Z,49.00
2022-12-12T00:05:19.671Z,47.33
2022-12-12T00:07:46.455Z,50.75
2022-12-12T00:10:14.663Z,47.30
2022-12-12T00:12:41.712Z,41.05
2022-12-12T00:15:09.567Z,46.92
2022-12-12T00:17:36.383Z,46.70
2022-12-12T00:20:03.724Z,47.67
2022-12-12T00:22:30.506Z,41.15
2022-12-12T00:24:57.231Z,45.50
2022-12-12T00:27:25.360Z,45.70
2022-12-12T00:29:53.120Z,43.50
2022-12-12T00:32:20.167Z,45.20
2022-12-12T00:34:46.821Z,44.13
2022-12-12T00:37:13.481Z,47.15
2022-12-12T00:39:40.646Z,43.90
2022-12-12T00:42:07.354Z,45.28
2022-12-12T00:44:35.385Z,45.20
2022-12-12T00:47:02.864Z,44.72
2022-12-12T00:49:30.173Z,46.70
2022-12-12T00:51:56.822Z,45.28
2022-12-12T00:54:23.701Z,41.05
2022-12-12T00:56:50.508Z,44.70
2022-12-12T00:59:17.253Z,40.75
2022-12-12T01:01:45.814Z,42.47
2022-12-12T01:04:12.677Z,38.42
2022-12-12T01:06:39.264Z,42.05
2022-12-12T01:09:05.911Z,39.00
2022-12-12T01:11:32.602Z,45.30
2022-12-12T01:13:59.289Z,42.45
2022-12-12T01:16:26.455Z,41.35
2022-12-12T01:18:54.521Z,36.53
2022-12-12T01:21:21.752Z,42.03
2022-12-12T01:23:48.452Z,41.78
2022-12-12T01:26:17.665Z,40.08
2022-12-12T01:28:45.064Z,42.60
2022-12-12T01:31:12.573Z,43.13
2022-12-12T01:33:39.835Z,37.88
2022-12-12T01:36:08.110Z,41.58
2022-12-12T01:38:34.796Z,41.17
2022-12-12T01:41:01.636Z,42.83
2022-12-12T01:43:28.967Z,41.13
2022-12-12T01:46:40.632Z,41.10
2022-12-12T01:49:16.109Z,40.90
2022-12-12T01:51:45.955Z,45.92
2022-12-12T01:54:17.048Z,39.67
2022-12-12T01:56:45.984Z,42.47
2022-12-12T01:59:16.265Z,37.92
2022-12-12T02:01:43.897Z,39.08
2022-12-12T02:04:11.530Z,39.33
2022-12-12T02:06:39.004Z,43.03
2022-12-12T02:09:10.098Z,42.08
2022-12-12T02:11:42.540Z,42.33
2022-12-12T02:14:09.412Z,40.28
2022-12-12T02:17:01.439Z,43.75
2022-12-12T02:20:04.572Z,40.88
2022-12-12T02:22:49.023Z,42.75
2022-12-12T02:25:43.450Z,44.83
2022-12-12T02:28:34.709Z,43.17
2022-12-12T02:31:12.844Z,43.05
2022-12-12T02:33:48.423Z,40.55
2022-12-12T02:36:25.135Z,43.60
2022-12-12T02:38:57.709Z,51.05
2022-12-12T02:41:29.973Z,44.08
2022-12-12T02:44:07.842Z,41.95
2022-12-12T02:46:41.476Z,45.95
2022-12-12T02:49:14.233Z,42.03
2022-12-12T02:51:42.418Z,42.72
2022-12-12T02:54:14.218Z,45.53
2022-12-12T02:56:48.410Z,41.45
2022-12-12T02:59:21.774Z,40.60
2022-12-12T03:02:13.463Z,41.08
2022-12-12T03:05:13.976Z,44.05
2022-12-12T03:07:53.377Z,42.78
2022-12-12T03:10:34.930Z,40.97
2022-12-12T03:13:11.908Z,47.53
2022-12-12T03:15:46.652Z,43.20
2022-12-12T03:18:23.409Z,43.15
2022-12-12T03:20:56.399Z,48.72
2022-12-12T03:23:29.044Z,45.47
2022-12-12T03:26:01.898Z,42.88
2022-12-12T03:28:34.819Z,46.10
2022-12-12T03:31:06.610Z,45.05
2022-12-12T03:33:41.286Z,46.90
2022-12-12T03:36:13.381Z,45.55
2022-12-12T03:38:43.428Z,46.45
2022-12-12T03:41:15.628Z,50.38
2022-12-12T03:43:46.859Z,51.75
2022-12-12T03:46:19.568Z,46.28
2022-12-12T03:48:53.790Z,45.97
2022-12-12T03:51:26.355Z,45.35
2022-12-12T03:53:58.716Z,47.28
2022-12-12T03:56:30.006Z,49.63
2022-12-12T03:59:03.047Z,47.22
2022-12-12T04:01:36.804Z,45.70
2022-12-12T04:04:09.934Z,43.78
2022-12-12T04:06:40.822Z,44.53
2022-12-12T04:09:31.159Z,42.25
2022-12-12T04:12:27.403Z,42.22
2022-12-12T04:15:06.495Z,46.33
2022-12-12T04:17:41.282Z,44.42
2022-12-12T04:20:39.050Z,44.15
2022-12-12T04:23:17.031Z,46.35
2022-12-12T04:26:24.398Z,49.63
2022-12-12T04:28:58.610Z,44.58
2022-12-12T04:31:29.123Z,51.00
2022-12-12T04:34:01.973Z,46.25
2022-12-12T04:36:32.591Z,49.28
2022-12-12T04:39:00.842Z,45.03
2022-12-12T04:41:29.812Z,46.35
2022-12-12T04:43:58.552Z,37.35
2022-12-12T04:46:28.685Z,43.03
2022-12-12T04:48:59.061Z,40.70
2022-12-12T04:51:31.772Z,45.88
2022-12-12T04:54:05.066Z,45.42
2022-12-12T04:56:36.951Z,46.15
2022-12-12T04:59:06.396Z,41.58
2022-12-12T05:01:46.852Z,42.35
2022-12-12T05:04:23.772Z,39.10
2022-12-12T05:06:58.791Z,41.42
2022-12-12T05:09:25.865Z,44.35
2022-12-12T05:11:53.496Z,46.70
2022-12-12T05:14:20.478Z,42.72
2022-12-12T05:16:52.231Z,44.28
2022-12-12T05:19:18.934Z,40.05
2022-12-12T05:21:45.669Z,38.22
2022-12-12T05:24:13.719Z,41.63
2022-12-12T05:26:41.009Z,40.83
2022-12-12T05:29:08.000Z,38.80
2022-12-12T05:31:34.970Z,36.92
2022-12-12T05:34:01.682Z,37.90
2022-12-12T05:36:28.398Z,44.35
2022-12-12T05:38:55.139Z,38.05
2022-12-12T05:41:23.450Z,38.00
2022-12-12T05:43:50.120Z,37.47
2022-12-12T05:46:17.021Z,35.10
2022-12-12T05:48:44.616Z,29.70
2022-12-12T05:51:11.262Z,39.88
2022-12-12T05:53:42.761Z,31.10
2022-12-12T05:56:11.412Z,29.02
2022-12-12T05:58:40.401Z,27.45
2022-12-12T06:01:07.710Z,26.77
2022-12-12T06:03:34.621Z,28.85
2022-12-12T06:06:01.806Z,27.08
2022-12-12T06:08:28.898Z,28.38
2022-12-12T06:10:55.557Z,28.08
2022-12-12T06:13:22.441Z,26.73
2022-12-12T06:15:50.568Z,27.50
2022-12-12T06:18:17.244Z,29.45
2022-12-12T06:20:43.996Z,25.00
2022-12-12T06:23:10.622Z,25.92
2022-12-12T06:25:37.293Z,25.90
2022-12-12T06:28:04.012Z,27.13
2022-12-12T06:30:30.711Z,27.42
2022-12-12T06:32:58.701Z,31.02
2022-12-12T06:35:25.389Z,28.05
2022-12-12T06:37:52.022Z,29.20
2022-12-12T06:40:18.922Z,34.85
2022-12-12T06:42:48.504Z,31.77
2022-12-12T06:45:16.035Z,28.25
2022-12-12T06:47:42.951Z,29.27
2022-12-12T06:50:11.356Z,26.55
2022-12-12T06:52:37.961Z,30.48
2022-12-12T06:55:05.237Z,26.65
2022-12-12T06:57:31.932Z,26.02
2022-12-12T06:59:58.556Z,29.65
2022-12-12T07:02:29.564Z,28.88
2022-12-12T07:04:57.209Z,25.02
2022-12-12T07:07:25.498Z,25.27
2022-12-12T07:09:52.397Z,26.65
2022-12-12T07:12:19.126Z,25.75
2022-12-12T07:14:45.723Z,23.02
2022-12-12T07:17:12.476Z,26.88
2022-12-12T07:19:39.213Z,25.55
2022-12-12T07:22:09.796Z,26.48
2022-12-12T07:24:38.667Z,25.63
2022-12-12T07:27:06.781Z,23.05
2022-12-12T07:29:33.804Z,24.83
2022-12-12T07:32:00.570Z,27.75
2022-12-12T07:34:29.302Z,23.23
2022-12-12T07:37:02.349Z,24.90
2022-12-12T07:39:30.117Z,28.25
2022-12-12T07:41:58.368Z,26.70
2022-12-12T07:44:25.138Z,30.50
2022-12-12T07:46:52.168Z,27.63
2022-12-12T07:49:18.990Z,28.52
2022-12-12T07:51:48.956Z,113.00
2022-12-12T07:54:16.197Z,175.10
2022-12-12T07:56:42.817Z,31.17
2022-12-12T07:59:10.880Z,28.05
2022-12-12T08:01:37.859Z,25.00
2022-12-12T08:04:05.180Z,27.58
2022-12-12T08:06:32.113Z,28.40
2022-12-12T08:08:58.737Z,33.97
2022-12-12T08:11:26.134Z,38.40
2022-12-12T08:13:53.181Z,39.72
2022-12-12T08:16:24.586Z,32.30
2022-12-12T08:18:54.189Z,32.55
2022-12-12T08:21:25.272Z,41.25
2022-12-12T08:23:56.089Z,39.17
2022-12-12T08:26:23.049Z,36.28
2022-12-12T08:28:49.801Z,33.40
2022-12-12T08:31:17.846Z,35.60
2022-12-12T08:33:46.307Z,33.78
2022-12-12T08:36:15.333Z,35.17
2022-12-12T08:38:42.226Z,31.67
2022-12-12T08:41:09.870Z,46.20
2022-12-12T08:43:37.863Z,240.70
2022-12-12T08:46:06.421Z,37.55
2022-12-12T08:48:33.456Z,28.05
2022-12-12T08:51:01.604Z,27.50
2022-12-12T08:53:28.401Z,27.88
2022-12-12T08:55:55.316Z,26.90
2022-12-12T08:58:22.492Z,28.83
2022-12-12T09:00:49.369Z,27.23
2022-12-12T09:03:16.596Z,33.38
2022-12-12T09:05:44.797Z,28.67
2022-12-12T09:08:13.663Z,33.97
2022-12-12T09:10:41.491Z,33.45
2022-12-12T09:13:08.489Z,33.83
2022-12-12T09:15:35.567Z,32.53
2022-12-12T09:18:02.677Z,31.65
2022-12-12T09:20:29.449Z,30.63
2022-12-12T09:22:56.170Z,31.08
2022-12-12T09:25:24.939Z,30.23
2022-12-12T09:27:51.689Z,30.48
2022-12-12T09:30:18.389Z,29.10
2022-12-12T09:32:45.489Z,34.20
2022-12-12T09:35:12.401Z,32.50
2022-12-12T09:37:39.409Z,32.42
2022-12-12T09:40:07.741Z,77.85
2022-12-12T09:42:40.154Z,46.05
2022-12-12T09:45:08.413Z,32.72
2022-12-12T09:47:40.065Z,34.03
2022-12-12T09:50:15.049Z,34.10
2022-12-12T09:52:42.542Z,25.08
2022-12-12T09:55:25.673Z,33.10
2022-12-12T09:57:58.991Z,34.13
2022-12-12T10:00:27.311Z,31.77
2022-12-12T10:03:14.312Z,41.17
2022-12-12T10:05:45.998Z,40.17
2022-12-12T10:08:22.105Z,36.92
2022-12-12T10:10:52.930Z,35.08
2022-12-12T10:13:23.839Z,33.33
2022-12-12T10:15:53.933Z,30.48
2022-12-12T10:18:26.981Z,35.00
2022-12-12T10:20:56.810Z,28.93
2022-12-12T10:23:36.298Z,25.67
2022-12-12T10:26:07.227Z,24.33
2022-12-12T10:28:36.189Z,27.55
2022-12-12T10:31:18.424Z,26.55
2022-12-12T10:34:01.638Z,26.13
2022-12-12T10:36:44.923Z,28.37
2022-12-12T10:39:20.642Z,26.98
2022-12-12T10:41:51.738Z,24.90
2022-12-12T10:44:47.191Z,25.77
2022-12-12T10:47:14.919Z,23.65
2022-12-12T10:49:42.123Z,24.15
2022-12-12T10:52:16.452Z,28.50
2022-12-12T10:54:47.892Z,29.67
2022-12-12T10:57:21.844Z,22.25
2022-12-12T11:02:30.874Z,23.60
2022-12-12T11:05:01.011Z,22.10
2022-12-12T11:07:28.596Z,18.98
2022-12-12T11:10:01.835Z,19.98
2022-12-12T11:15:07.330Z,17.77
2022-12-12T11:20:07.322Z,23.02
2022-12-12T11:22:34.179Z,22.57
2022-12-12T11:25:01.458Z,65.00
2022-12-12T11:27:32.516Z,32.20
2022-12-12T11:30:01.887Z,21.92
2022-12-12T11:32:36.267Z,23.23
2022-12-12T11:35:06.511Z,26.60
2022-12-12T11:37:38.862Z,28.15
2022-12-12T11:40:10.500Z,19.23
2022-12-12T11:42:37.265Z,23.73
2022-12-12T11:45:19.658Z,23.65
2022-12-12T11:47:48.414Z,22.05
2022-12-12T11:50:21.017Z,23.35
2022-12-12T11:52:49.325Z,21.08
2022-12-12T11:55:22.072Z,21.40
2022-12-12T11:58:04.884Z,19.90
2022-12-12T12:00:44.055Z,23.17
2022-12-12T12:03:34.217Z,21.95
2022-12-12T12:06:32.671Z,19.98
2022-12-12T12:09:16.497Z,21.92
2022-12-12T12:11:54.117Z,20.65
2022-12-12T12:14:32.936Z,23.90
2022-12-12T12:17:06.723Z,22.52
2022-12-12T12:19:43.343Z,22.27
2022-12-12T12:22:23.063Z,23.00
2022-12-12T12:25:15.083Z,20.60
2022-12-12T12:27:49.757Z,22.60
2022-12-12T12:30:22.719Z,20.80
2022-12-12T12:33:08.146Z,22.03
2022-12-12T12:35:47.656Z,19.90
2022-12-12T12:38:25.702Z,19.40
2022-12-12T12:41:26.184Z,19.05
2022-12-12T12:44:11.672Z,21.02
2022-12-12T12:46:47.021Z,21.83
2022-12-12T12:49:18.307Z,20.23
2022-12-12T12:51:53.598Z,21.10
2022-12-12T12:54:25.016Z,18.88
2022-12-12T12:56:59.035Z,18.75
2022-12-12T12:59:32.688Z,19.38
2022-12-12T13:02:03.436Z,20.60
2022-12-12T13:04:37.483Z,20.83
2022-12-12T13:07:14.016Z,21.27
2022-12-12T13:09:44.346Z,24.92
2022-12-12T13:12:18.508Z,22.42
2022-12-12T13:14:50.879Z,25.58
2022-12-12T13:17:20.131Z,23.45
2022-12-12T13:19:50.047Z,24.38
2022-12-12T13:22:26.977Z,26.80
2022-12-12T13:25:00.235Z,30.60
2022-12-12T13:27:33.272Z,36.33
2022-12-12T13:30:04.148Z,39.30
2022-12-12T13:33:28.566Z,34.35
2022-12-12T13:36:04.474Z,39.20
2022-12-12T13:38:33.924Z,38.85
2022-12-12T13:41:02.441Z,38.13
2022-12-12T13:43:40.531Z,38.60
2022-12-12T13:46:35.825Z,38.10
2022-12-12T13:49:24.757Z,38.58
2022-12-12T13:51:51.520Z,38.35
2022-12-12T13:54:47.318Z,43.30
2022-12-12T13:57:25.312Z,36.67
2022-12-12T14:00:19.635Z,38.72
2022-12-12T14:03:01.281Z,45.35
2022-12-12T14:05:32.002Z,43.95
2022-12-12T14:08:03.788Z,42.13
2022-12-12T14:10:35.696Z,43.15
2022-12-12T14:13:27.520Z,46.90
2022-12-12T14:16:04.125Z,43.15
2022-12-12T14:18:33.596Z,46.78
2022-12-12T14:21:03.410Z,48.40
2022-12-12T14:23:32.097Z,51.17
2022-12-12T14:26:01.068Z,39.17
2022-12-12T14:28:29.566Z,44.42
2022-12-12T14:31:10.219Z,43.95
2022-12-12T14:34:13.376Z,42.75
2022-12-12T14:37:00.276Z,44.38
2022-12-12T14:39:46.422Z,42.45
2022-12-12T14:42:26.848Z,39.55
2022-12-12T14:45:41.298Z,45.88
2022-12-12T14:50:39.764Z,42.13
2022-12-12T14:53:16.286Z,45.97
2022-12-12T14:55:48.721Z,42.35
2022-12-12T14:58:21.257Z,43.63
2022-12-12T15:00:51.530Z,40.92
2022-12-12T15:03:28.101Z,40.67
2022-12-12T15:06:28.266Z,39.20
2022-12-12T15:08:58.300Z,41.85
2022-12-12T15:11:31.409Z,39.28
2022-12-12T15:14:01.510Z,44.60
2022-12-12T15:16:42.740Z,41.30
2022-12-12T15:19:16.094Z,41.63
2022-12-12T15:21:45.091Z,41.38
2022-12-12T15:24:19.757Z,40.72
2022-12-12T15:26:49.316Z,41.80
2022-12-12T15:29:20.735Z,41.97
2022-12-12T15:31:51.895Z,43.22
2022-12-12T15:34:34.310Z,44.97
2022-12-12T15:37:24.660Z,40.65
2022-12-12T15:40:19.351Z,42.13
2022-12-12T15:42:51.773Z,41.47
2022-12-12T15:45:24.571Z,42.40
2022-12-12T15:47:54.527Z,45.20
2022-12-12T15:50:26.080Z,42.03
2022-12-12T15:53:04.022Z,42.28
2022-12-12T15:55:33.281Z,38.05
2022-12-12T15:58:02.665Z,57.78
2022-12-12T16:00:35.455Z,43.95
2022-12-12T16:03:07.143Z,40.58
2022-12-12T16:05:37.593Z,38.55
2022-12-12T16:08:31.984Z,39.50
2022-12-12T16:11:01.301Z,42.17
2022-12-12T16:13:36.782Z,44.72
2022-12-12T16:16:37.230Z,43.03
2022-12-12T16:19:05.705Z,44.65
2022-12-12T16:21:34.429Z,44.20
2022-12-12T16:24:10.355Z,45.75
2022-12-12T16:26:37.202Z,42.50
2022-12-12T16:29:04.272Z,40.00
2022-12-12T16:31:31.259Z,45.85
2022-12-12T16:34:02.946Z,42.13
2022-12-12T16:36:30.043Z,44.08
2022-12-12T16:38:57.198Z,44.08
2022-12-12T16:41:24.198Z,44.50
2022-12-12T16:43:50.989Z,41.67
2022-12-12T16:46:19.511Z,43.78
2022-12-12T16:48:46.366Z,43.85
2022-12-12T16:51:16.571Z,42.95
2022-12-12T16:53:43.421Z,44.72
2022-12-12T16:56:11.413Z,44.97
2022-12-12T16:58:38.521Z,44.60
2022-12-12T17:01:05.937Z,40.97
2022-12-12T17:03:33.329Z,41.53
2022-12-12T17:06:01.836Z,43.35
2022-12-12T17:08:30.072Z,40.20
2022-12-12T17:11:09.457Z,49.50
2022-12-12T17:13:39.776Z,51.00
2022-12-12T17:16:06.852Z,51.17
2022-12-12T17:18:35.562Z,43.92
2022-12-12T17:21:02.311Z,45.03
2022-12-12T17:23:30.510Z,43.35
2022-12-12T17:26:03.608Z,46.10
2022-12-12T17:28:31.950Z,46.03
2022-12-12T17:30:58.891Z,43.17
2022-12-12T17:33:26.216Z,46.75
2022-12-12T17:36:00.977Z,46.97
2022-12-12T17:38:28.319Z,42.90
2022-12-12T17:40:57.680Z,42.13
2022-12-12T17:43:25.223Z,41.13
2022-12-12T17:46:00.041Z,42.28
2022-12-12T17:48:29.272Z,38.30
2022-12-12T17:50:57.860Z,41.90
2022-12-12T17:53:24.821Z,338.52
2022-12-12T17:56:01.331Z,43.45
2022-12-12T17:58:36.962Z,41.53
2022-12-12T18:01:10.102Z,34.85
2022-12-12T18:03:37.271Z,42.13
2022-12-12T18:06:05.030Z,39.47
2022-12-12T18:08:31.736Z,40.33
2022-12-12T18:10:58.599Z,41.60
2022-12-12T18:13:26.020Z,42.17
2022-12-12T18:15:55.909Z,38.25
2022-12-12T18:18:22.774Z,41.17
2022-12-12T18:20:49.867Z,43.05
2022-12-12T18:23:16.752Z,42.33
2022-12-12T18:25:43.497Z,47.80
2022-12-12T18:28:12.335Z,45.65
2022-12-12T18:30:40.199Z,46.97
2022-12-12T18:33:09.531Z,49.33
2022-12-12T18:35:36.952Z,48.63
2022-12-12T18:38:03.714Z,51.75
2022-12-12T18:40:30.621Z,47.67
2022-12-12T18:42:57.575Z,51.83
2022-12-12T18:45:24.330Z,49.15
2022-12-12T18:47:52.493Z,58.80
2022-12-12T18:50:20.744Z,48.13
2022-12-12T18:52:47.535Z,53.15
2022-12-12T18:55:16.757Z,52.33
2022-12-12T18:57:46.540Z,53.97
2022-12-12T19:00:16.650Z,52.80
2022-12-12T19:02:43.628Z,53.90
2022-12-12T19:05:13.430Z,49.90
2022-12-12T19:07:42.099Z,50.88
2022-12-12T19:10:10.053Z,55.15
2022-12-12T19:12:37.156Z,52.85
2022-12-12T19:15:20.193Z,59.90
2022-12-12T19:17:47.137Z,67.20
2022-12-12T19:20:14.403Z,69.00
2022-12-12T19:22:46.907Z,66.32
2022-12-12T19:25:14.931Z,65.13
2022-12-12T19:27:42.179Z,59.63
2022-12-12T19:30:10.421Z,67.63
2022-12-12T19:32:37.302Z,70.03
2022-12-12T19:35:06.037Z,69.20
2022-12-12T19:37:38.325Z,69.85
2022-12-12T19:40:10.616Z,71.05
2022-12-12T19:42:37.459Z,74.25
2022-12-12T19:45:05.464Z,70.95
2022-12-12T19:47:32.635Z,70.60
2022-12-12T19:49:59.755Z,71.07
2022-12-12T19:52:26.964Z,64.40
2022-12-12T19:54:53.735Z,75.60
2022-12-12T19:57:26.683Z,77.35
2022-12-12T19:59:54.302Z,66.40
2022-12-12T20:02:21.361Z,69.18
2022-12-12T20:04:48.426Z,67.43
2022-12-12T20:07:15.236Z,63.15
2022-12-12T20:09:42.172Z,52.70
2022-12-12T20:12:09.180Z,60.38
2022-12-12T20:14:38.033Z,67.07
2022-12-12T20:17:04.954Z,62.38
2022-12-12T20:19:32.343Z,62.22
2022-12-12T20:22:01.230Z,65.32
2022-12-12T20:24:29.438Z,62.80
2022-12-12T20:26:57.496Z,62.85
2022-12-12T20:29:24.469Z,65.55
2022-12-12T20:31:53.050Z,72.90
2022-12-12T20:34:25.245Z,68.15
2022-12-12T20:36:55.471Z,69.43
2022-12-12T20:39:22.677Z,82.72
2022-12-12T20:41:51.616Z,69.30
2022-12-12T20:44:19.287Z,63.33
2022-12-12T20:46:46.927Z,69.00
2022-12-12T20:49:17.125Z,59.33
2022-12-12T20:51:59.376Z,70.97
2022-12-12T20:54:28.601Z,73.30
2022-12-12T20:56:55.840Z,78.22
2022-12-12T20:59:23.614Z,70.28
2022-12-12T21:01:51.017Z,68.47
2022-12-12T21:04:19.395Z,63.15
2022-12-12T21:06:51.536Z,68.55
2022-12-12T21:09:24.974Z,79.25
2022-12-12T21:14:21.350Z,77.40
2022-12-12T21:16:48.191Z,88.85
2022-12-12T21:19:17.473Z,66.32
2022-12-12T21:21:46.069Z,67.53
2022-12-12T21:24:15.782Z,66.63
2022-12-12T21:26:43.452Z,69.55
2022-12-12T21:29:10.549Z,70.00
2022-12-12T21:31:48.136Z,77.65
2022-12-12T21:34:17.558Z,66.05
2022-12-12T21:36:45.774Z,98.57
2022-12-12T21:39:13.571Z,69.57
2022-12-12T21:41:42.130Z,126.68
2022-12-12T21:44:09.637Z,127.03
2022-12-12T21:46:37.320Z,185.52
2022-12-12T21:49:22.400Z,70.22
2022-12-12T21:51:50.644Z,139.13
2022-12-12T21:54:17.631Z,117.32
2022-12-12T21:56:44.488Z,160.90
2022-12-12T21:59:13.857Z,89.93
2022-12-12T22:01:41.509Z,211.40
2022-12-12T22:04:08.919Z,98.65
2022-12-12T22:06:36.754Z,74.50
2022-12-12T22:09:07.132Z,109.50
2022-12-12T22:11:42.167Z,97.18
2022-12-12T22:14:17.424Z,81.32
2022-12-12T22:16:45.345Z,121.00
2022-12-12T22:19:14.569Z,120.00
2022-12-12T22:21:41.505Z,158.93
2022-12-12T22:24:09.771Z,311.10
2022-12-12T22:26:38.373Z,208.63
2022-12-12T22:29:07.309Z,194.15
2022-12-12T22:31:37.689Z,209.50
2022-12-12T22:34:06.538Z,111.57
2022-12-12T22:36:35.569Z,213.80
2022-12-12T22:39:03.201Z,177.95
2022-12-12T22:41:31.620Z,184.25
2022-12-12T22:44:01.409Z,76.63
2022-12-12T22:46:28.675Z,104.35
2022-12-12T22:48:57.612Z,78.47
2022-12-12T22:51:26.404Z,105.82
2022-12-12T22:53:55.418Z,101.30
2022-12-12T22:56:22.396Z,152.48
2022-12-12T22:58:50.686Z,182.27
2022-12-12T23:01:19.649Z,109.07
2022-12-12T23:03:46.810Z,83.97
2022-12-12T23:06:15.788Z,197.32
2022-12-12T23:08:43.315Z,154.45
2022-12-12T23:11:12.597Z,111.15
2022-12-12T23:13:39.914Z,114.00
2022-12-12T23:16:10.732Z,86.90
2022-12-12T23:18:39.545Z,98.15
2022-12-12T23:21:14.916Z,103.03
2022-12-12T23:23:43.419Z,120.60
2022-12-12T23:26:12.486Z,148.27
2022-12-12T23:28:39.330Z,140.85
2022-12-12T23:31:10.312Z,146.52
2022-12-12T23:33:37.488Z,112.60
2022-12-12T23:36:04.518Z,59.70
2022-12-12T23:38:31.300Z,98.55
2022-12-12T23:41:02.552Z,81.00
2022-12-12T23:43:29.224Z,74.07
2022-12-12T23:45:55.960Z,134.98
2022-12-12T23:48:24.076Z,157.10
2022-12-12T23:50:50.967Z,120.70
2022-12-12T23:53:17.661Z,77.05
2022-12-12T23:55:44.378Z,130.95
2022-12-12T23:58:11.338Z,93.97
